createdAt,value
2022-10-05T00:00:59.070Z,2.85
2022-10-05T00:03:33.511Z,3.00
2022-10-05T00:06:00.637Z,3.20
2022-10-05T00:08:33.259Z,3.40
2022-10-05T00:11:00.039Z,3.35
2022-10-05T00:13:29.046Z,3.58
2022-10-05T00:16:20.425Z,4.15
2022-10-05T00:18:53.057Z,3.13
2022-10-05T00:21:22.411Z,3.33
2022-10-05T00:23:50.975Z,3.67
2022-10-05T00:26:26.321Z,3.45
2022-10-05T00:28:54.395Z,3.28
2022-10-05T00:31:24.102Z,3.70
2022-10-05T00:33:51.718Z,3.83
2022-10-05T00:36:18.678Z,3.70
2022-10-05T00:38:45.505Z,3.50
2022-10-05T00:41:35.018Z,3.70
2022-10-05T00:44:27.872Z,3.75
2022-10-05T00:47:07.889Z,3.30
2022-10-05T00:50:05.721Z,3.75
2022-10-05T00:52:46.345Z,3.83
2022-10-05T00:55:34.027Z,3.67
2022-10-05T00:58:30.182Z,3.53
2022-10-05T01:01:18.172Z,3.60
2022-10-05T01:04:10.913Z,3.47
2022-10-05T01:07:07.831Z,3.67
2022-10-05T01:09:51.518Z,3.58
2022-10-05T01:12:46.204Z,3.70
2022-10-05T01:15:27.637Z,3.85
2022-10-05T01:17:57.170Z,3.58
2022-10-05T01:20:29.811Z,3.13
2022-10-05T01:23:18.222Z,3.28
2022-10-05T01:26:03.045Z,3.08
2022-10-05T01:28:35.557Z,3.40
2022-10-05T01:31:07.441Z,3.38
2022-10-05T01:34:11.482Z,3.53
2022-10-05T01:36:48.523Z,3.38
2022-10-05T01:39:45.768Z,3.50
2022-10-05T01:42:31.200Z,3.50
2022-10-05T01:45:15.815Z,3.42
2022-10-05T01:48:08.747Z,3.35
2022-10-05T01:53:36.257Z,4.57
2022-10-05T01:56:22.717Z,3.40
2022-10-05T01:59:16.745Z,3.53
2022-10-05T02:01:59.974Z,3.42
2022-10-05T02:05:00.241Z,3.25
2022-10-05T02:07:28.944Z,3.55
2022-10-05T02:10:00.684Z,2.95
2022-10-05T02:12:32.743Z,3.38
2022-10-05T02:15:08.301Z,3.38
2022-10-05T02:17:44.238Z,3.40
2022-10-05T02:20:14.086Z,3.45
2022-10-05T02:22:51.503Z,3.22
2022-10-05T02:25:24.518Z,3.35
2022-10-05T02:28:11.022Z,3.13
2022-10-05T02:30:47.054Z,3.97
2022-10-05T02:33:34.124Z,3.30
2022-10-05T02:36:15.926Z,3.47
2022-10-05T02:39:12.837Z,3.23
2022-10-05T02:41:55.728Z,3.13
2022-10-05T02:44:27.583Z,3.15
2022-10-05T02:47:28.296Z,3.70
2022-10-05T02:50:26.968Z,3.90
2022-10-05T02:53:23.159Z,3.40
2022-10-05T02:56:18.128Z,3.10
2022-10-05T02:59:11.579Z,3.92
2022-10-05T03:02:25.429Z,3.33
2022-10-05T03:05:12.864Z,3.28
2022-10-05T03:08:06.751Z,3.28
2022-10-05T03:10:46.129Z,3.47
2022-10-05T03:13:26.429Z,3.20
2022-10-05T03:16:12.334Z,3.20
2022-10-05T03:19:24.257Z,3.15
2022-10-05T03:22:15.304Z,3.17
2022-10-05T03:25:25.523Z,3.03
2022-10-05T03:27:59.676Z,3.33
2022-10-05T03:30:32.344Z,3.60
2022-10-05T03:33:12.665Z,3.38
2022-10-05T03:36:01.014Z,3.45
2022-10-05T03:39:01.060Z,3.58
2022-10-05T03:41:33.721Z,3.30
2022-10-05T03:44:25.156Z,3.60
2022-10-05T03:46:59.777Z,3.85
2022-10-05T03:49:40.849Z,3.38
2022-10-05T03:52:35.862Z,3.85
2022-10-05T03:55:13.364Z,3.67
2022-10-05T03:57:42.648Z,4.03
2022-10-05T04:00:14.794Z,3.60
2022-10-05T04:02:49.051Z,4.10
2022-10-05T04:05:26.972Z,3.65
2022-10-05T04:08:02.872Z,3.50
2022-10-05T04:10:59.197Z,4.95
2022-10-05T04:13:33.943Z,4.00
2022-10-05T04:16:09.657Z,3.70
2022-10-05T04:18:54.629Z,3.90
2022-10-05T04:21:27.194Z,4.03
2022-10-05T04:26:38.930Z,3.90
2022-10-05T04:29:30.933Z,4.10
2022-10-05T04:32:16.220Z,3.65
2022-10-05T04:35:07.297Z,4.03
2022-10-05T04:37:53.521Z,3.63
2022-10-05T04:40:57.985Z,3.50
2022-10-05T04:43:27.509Z,4.22
2022-10-05T04:46:03.374Z,3.50
2022-10-05T04:48:57.662Z,3.80
2022-10-05T04:51:46.605Z,3.85
2022-10-05T04:54:33.379Z,3.58
2022-10-05T04:57:04.102Z,3.97
2022-10-05T04:59:56.028Z,4.07
2022-10-05T05:02:37.815Z,4.18
2022-10-05T05:05:25.804Z,4.28
2022-10-05T05:08:04.636Z,4.25
2022-10-05T05:10:53.947Z,4.30
2022-10-05T05:13:42.449Z,4.20
2022-10-05T05:16:35.334Z,4.45
2022-10-05T05:21:40.747Z,4.00
2022-10-05T05:27:20.489Z,4.65
2022-10-05T05:30:04.121Z,4.50
2022-10-05T05:32:45.900Z,4.00
2022-10-05T05:35:27.825Z,4.78
2022-10-05T05:38:00.667Z,4.73
2022-10-05T05:40:34.488Z,4.20
2022-10-05T05:43:38.085Z,5.00
2022-10-05T05:46:17.197Z,4.80
2022-10-05T05:48:47.513Z,4.57
2022-10-05T05:51:23.271Z,4.25
2022-10-05T05:53:56.095Z,4.38
2022-10-05T05:56:41.701Z,4.72
2022-10-05T05:59:22.568Z,4.40
2022-10-05T06:01:53.210Z,3.92
2022-10-05T06:04:31.635Z,3.90
2022-10-05T06:07:01.210Z,4.93
2022-10-05T06:09:49.758Z,3.58
2022-10-05T06:12:22.439Z,4.70
2022-10-05T06:14:53.020Z,4.40
2022-10-05T06:17:39.709Z,4.05
2022-10-05T06:20:20.683Z,4.28
2022-10-05T06:22:49.097Z,4.97
2022-10-05T06:25:54.148Z,3.83
2022-10-05T06:28:20.900Z,4.35
2022-10-05T06:31:21.558Z,4.63
2022-10-05T06:33:54.476Z,4.15
2022-10-05T06:36:44.571Z,4.68
2022-10-05T06:39:23.168Z,4.40
2022-10-05T06:42:10.898Z,5.07
2022-10-05T06:44:53.484Z,5.15
2022-10-05T06:47:44.832Z,4.43
2022-10-05T06:50:30.469Z,3.95
2022-10-05T06:53:15.859Z,3.72
2022-10-05T06:55:58.743Z,4.32
2022-10-05T06:58:44.107Z,4.78
2022-10-05T07:01:34.567Z,3.55
2022-10-05T07:04:39.617Z,4.22
2022-10-05T07:07:31.549Z,5.40
2022-10-05T07:10:16.816Z,4.15
2022-10-05T07:13:06.853Z,3.90
2022-10-05T07:15:49.868Z,4.13
2022-10-05T07:18:40.769Z,4.38
2022-10-05T07:21:16.343Z,4.20
2022-10-05T07:24:22.569Z,5.07
2022-10-05T07:27:22.678Z,4.40
2022-10-05T07:29:55.651Z,4.50
2022-10-05T07:32:31.730Z,3.78
2022-10-05T07:35:07.922Z,3.90
2022-10-05T07:37:57.402Z,4.07
2022-10-05T07:40:27.089Z,3.95
2022-10-05T07:43:32.078Z,3.65
2022-10-05T07:46:46.546Z,3.40
2022-10-05T07:49:40.813Z,3.58
2022-10-05T07:52:17.204Z,3.78
2022-10-05T07:55:16.221Z,3.70
2022-10-05T07:58:22.128Z,3.35
2022-10-05T08:01:16.956Z,4.10
2022-10-05T08:03:49.868Z,3.75
2022-10-05T08:06:33.265Z,3.70
2022-10-05T08:09:21.127Z,3.70
2022-10-05T08:12:09.544Z,3.50
2022-10-05T08:14:52.888Z,3.80
2022-10-05T08:17:44.549Z,3.65
2022-10-05T08:20:28.672Z,3.40
2022-10-05T08:23:05.009Z,3.20
2022-10-05T08:25:56.688Z,3.65
2022-10-05T08:28:38.712Z,3.25
2022-10-05T08:31:18.993Z,3.97
2022-10-05T08:34:12.034Z,3.40
2022-10-05T08:37:05.791Z,3.42
2022-10-05T08:39:41.160Z,3.80
2022-10-05T08:42:37.024Z,3.60
2022-10-05T08:45:28.466Z,4.00
2022-10-05T08:48:23.075Z,3.38
2022-10-05T08:51:31.934Z,3.75
2022-10-05T08:54:23.451Z,3.85
2022-10-05T08:57:20.834Z,3.70
2022-10-05T08:59:59.793Z,3.55
2022-10-05T09:02:54.588Z,3.72
2022-10-05T09:05:51.907Z,3.47
2022-10-05T09:08:30.948Z,3.80
2022-10-05T09:11:25.968Z,3.40
2022-10-05T09:14:11.445Z,3.63
2022-10-05T09:16:50.094Z,3.67
2022-10-05T09:19:38.597Z,3.95
2022-10-05T09:22:35.979Z,3.35
2022-10-05T09:25:33.572Z,3.35
2022-10-05T09:28:23.080Z,4.00
2022-10-05T09:31:08.838Z,3.70
2022-10-05T09:33:41.924Z,3.70
2022-10-05T09:36:42.225Z,3.70
2022-10-05T09:39:14.945Z,3.22
2022-10-05T09:42:09.946Z,3.63
2022-10-05T09:44:54.698Z,3.20
2022-10-05T09:47:46.320Z,3.45
2022-10-05T09:50:34.709Z,3.55
2022-10-05T09:53:22.089Z,3.25
2022-10-05T09:55:57.870Z,3.42
2022-10-05T09:58:43.012Z,3.22
2022-10-05T10:01:47.049Z,3.50
2022-10-05T10:04:38.278Z,3.47
2022-10-05T10:07:29.845Z,3.25
2022-10-05T10:10:15.361Z,2.95
2022-10-05T10:12:51.727Z,3.20
2022-10-05T10:15:44.547Z,2.97
2022-10-05T10:20:37.910Z,3.08
2022-10-05T10:23:28.419Z,2.80
2022-10-05T10:26:06.796Z,2.55
2022-10-05T10:29:14.605Z,3.00
2022-10-05T10:32:05.356Z,2.50
2022-10-05T10:35:09.517Z,2.28
2022-10-05T10:37:53.312Z,2.20
2022-10-05T10:40:34.929Z,2.25
2022-10-05T10:43:07.812Z,2.33
2022-10-05T10:46:07.546Z,2.10
2022-10-05T10:48:40.539Z,2.00
2022-10-05T10:51:41.299Z,2.33
2022-10-05T10:54:28.022Z,2.30
2022-10-05T10:57:11.155Z,2.15
2022-10-05T10:59:56.333Z,1.85
2022-10-05T11:02:38.138Z,2.35
2022-10-05T11:05:25.503Z,2.10
2022-10-05T11:08:29.688Z,2.30
2022-10-05T11:11:30.984Z,2.50
2022-10-05T11:14:16.484Z,2.72
2022-10-05T11:17:01.336Z,2.10
2022-10-05T11:20:02.587Z,2.58
2022-10-05T11:22:38.433Z,1.95
2022-10-05T11:25:32.222Z,1.75
2022-10-05T11:28:14.344Z,2.13
2022-10-05T11:31:31.942Z,2.22
2022-10-05T11:34:27.218Z,1.92
2022-10-05T11:37:24.689Z,2.20
2022-10-05T11:40:24.602Z,2.05
2022-10-05T11:43:10.090Z,2.45
2022-10-05T11:45:54.995Z,2.10
2022-10-05T11:48:39.802Z,1.92
2022-10-05T11:51:18.828Z,1.83
2022-10-05T11:53:57.553Z,1.88
2022-10-05T11:56:40.053Z,2.20
2022-10-05T11:59:28.917Z,1.80
2022-10-05T12:02:18.190Z,1.88
2022-10-05T12:04:47.892Z,1.65
2022-10-05T12:07:46.594Z,1.90
2022-10-05T12:10:25.529Z,1.80
2022-10-05T12:12:58.515Z,1.80
2022-10-05T12:15:42.769Z,1.90
2022-10-05T12:18:18.375Z,1.48
2022-10-05T12:20:55.806Z,1.70
2022-10-05T12:23:33.633Z,1.70
2022-10-05T12:26:11.525Z,1.70
2022-10-05T12:28:52.052Z,1.52
2022-10-05T12:31:29.043Z,1.75
2022-10-05T12:34:36.612Z,1.50
2022-10-05T12:37:25.794Z,1.80
2022-10-05T12:40:06.179Z,1.50
2022-10-05T12:42:52.266Z,1.60
2022-10-05T12:45:30.838Z,1.40
2022-10-05T12:48:03.617Z,1.58
2022-10-05T12:50:40.882Z,1.80
2022-10-05T12:53:22.525Z,1.65
2022-10-05T12:56:00.250Z,1.70
2022-10-05T12:58:45.648Z,1.40
